Time;durP1;ratioP1;P1;durP2;ratioP2;P2;SDS_P1;SDS_P2;PMS_P1;PMS_P2;Temp;Humidity;BMP_temperature;BMP_pressure;BME280_temperature;BME280_humidity;BME280_pressure;Samples;Min_cycle;Max_cycle;Signal;HPM_P1;HPM_P2
2022/10/26 00:00:36;;;;;;;;;;;8.70;99.90;;;;;;5069376;28;19904;-82
2022/10/26 00:03:02;;;;;;;;;;;8.60;99.90;;;;;;5052353;28;19962;-82
2022/10/26 00:05:27;;;;;;;;;;;8.70;99.90;;;;;;5056278;28;19904;-82
2022/10/26 00:07:53;;;;;;;;;;;8.80;99.90;;;;;;5055098;28;19909;-82
2022/10/26 00:10:20;;;;;;;;;;;8.80;99.90;;;;;;5051098;28;20372;-82
2022/10/26 00:12:47;;;;;;;;;;;8.90;99.90;;;;;;5055733;28;19916;-82
2022/10/26 00:15:12;;;;;;;;;;;8.80;99.90;;;;;;5056630;28;19963;-82
2022/10/26 00:17:38;;;;;;;;;;;8.80;99.90;;;;;;5056895;28;20337;-82
2022/10/26 00:20:03;;;;;;;;;;;8.70;99.90;;;;;;5059179;28;19912;-82
2022/10/26 00:22:29;;;;;;;;;;;8.60;99.90;;;;;;5054320;28;19920;-82
2022/10/26 00:24:54;;;;;;;;;;;8.60;99.90;;;;;;5056911;28;20364;-82
2022/10/26 00:27:19;;;;;;;;;;;8.50;99.90;;;;;;5058146;28;19936;-83
2022/10/26 00:29:45;;;;;;;;;;;8.40;99.90;;;;;;5054084;28;20011;-82
2022/10/26 00:32:10;;;;;;;;;;;8.30;99.90;;;;;;5063801;28;19916;-82
2022/10/26 00:34:37;;;;;;;;;;;8.20;99.90;;;;;;5053494;28;19921;-82
2022/10/26 00:37:02;;;;;;;;;;;8.20;99.90;;;;;;5058916;28;19913;-82
2022/10/26 00:39:28;;;;;;;;;;;8.10;99.90;;;;;;5061610;28;19919;-82
2022/10/26 00:41:53;;;;;;;;;;;8.10;99.90;;;;;;5055879;28;20441;-82
2022/10/26 00:44:56;;;;;;;;;;;8.10;99.90;;;;;;5054976;28;19909;-82
2022/10/26 00:47:32;;;;;;;;;;;8.00;99.90;;;;;;5002461;28;19910;-82
2022/10/26 00:50:00;;;;;;;;;;;8.10;99.90;;;;;;5048132;28;19905;-82
2022/10/26 00:52:26;;;;;;;;;;;8.10;99.90;;;;;;5054480;28;19921;-82
2022/10/26 00:54:53;;;;;;;;;;;8.10;99.90;;;;;;5050759;28;19913;-82
2022/10/26 00:57:18;;;;;;;;;;;8.40;99.90;;;;;;5055411;28;20259;-82
2022/10/26 00:59:44;;;;;;;;;;;8.50;99.90;;;;;;5057317;28;19999;-82
2022/10/26 01:02:10;;;;;;;;;;;8.50;99.90;;;;;;5056191;28;19974;-82
2022/10/26 01:04:35;;;;;;;;;;;8.70;99.90;;;;;;5061795;28;19915;-82
2022/10/26 01:07:02;;;;;;;;;;;8.70;99.90;;;;;;5060094;28;19951;-82
2022/10/26 01:09:28;;;;;;;;;;;8.60;99.90;;;;;;5063305;28;19924;-82
2022/10/26 01:11:53;;;;;;;;;;;8.60;99.90;;;;;;5060551;28;19913;-82
2022/10/26 01:14:19;;;;;;;;;;;8.70;99.90;;;;;;5062320;28;19917;-82
2022/10/26 01:17:05;;;;;;;;;;;8.60;99.90;;;;;;5057503;28;20345;-82
2022/10/26 01:19:52;;;;;;;;;;;8.50;99.90;;;;;;5024675;28;19904;-82
2022/10/26 01:22:54;;;;;;;;;;;8.50;99.90;;;;;;5068500;28;19916;-82
2022/10/26 01:25:41;;;;;;;;;;;8.40;99.90;;;;;;5025589;28;19939;-82
2022/10/26 01:28:18;;;;;;;;;;;8.40;99.90;;;;;;5054139;28;20238;-82
2022/10/26 01:30:45;;;;;;;;;;;8.60;99.90;;;;;;5067966;28;20365;-82
2022/10/26 01:33:19;;;;;;;;;;;8.60;99.90;;;;;;5061173;28;20440;-82
2022/10/26 01:36:05;;;;;;;;;;;8.60;99.90;;;;;;5063291;28;19905;-82
2022/10/26 01:38:46;;;;;;;;;;;8.60;99.90;;;;;;5047251;28;19904;-82
2022/10/26 01:41:33;;;;;;;;;;;8.60;99.90;;;;;;5037678;28;19904;-82
2022/10/26 01:44:08;;;;;;;;;;;8.60;99.90;;;;;;5049701;28;19908;-82
2022/10/26 01:46:41;;;;;;;;;;;8.60;99.90;;;;;;5043719;28;20413;-82
2022/10/26 01:49:10;;;;;;;;;;;8.60;99.90;;;;;;5055775;28;19912;-82
2022/10/26 01:51:39;;;;;;;;;;;8.60;99.90;;;;;;5064091;28;19909;-82
2022/10/26 01:54:07;;;;;;;;;;;8.60;99.90;;;;;;5043968;28;19919;-82
2022/10/26 01:56:44;;;;;;;;;;;8.50;99.90;;;;;;5040466;28;20126;-82
2022/10/26 01:59:21;;;;;;;;;;;8.60;99.90;;;;;;5062147;28;19957;-82
2022/10/26 02:01:47;;;;;;;;;;;8.50;99.90;;;;;;5051084;28;19905;-82
2022/10/26 02:04:31;;;;;;;;;;;8.40;99.90;;;;;;5035164;28;19996;-82
2022/10/26 02:07:01;;;;;;;;;;;8.40;99.90;;;;;;5061992;28;19911;-82
2022/10/26 02:09:46;;;;;;;;;;;8.40;99.90;;;;;;5056253;28;19912;-82
2022/10/26 02:12:35;;;;;;;;;;;8.40;99.90;;;;;;5056522;28;19952;-82
2022/10/26 02:15:21;;;;;;;;;;;8.40;99.90;;;;;;5050233;28;19912;-82
2022/10/26 02:17:49;;;;;;;;;;;8.30;99.90;;;;;;5062929;28;19928;-82
2022/10/26 02:20:25;;;;;;;;;;;8.30;99.90;;;;;;5043427;28;20348;-82
2022/10/26 02:22:57;;;;;;;;;;;8.30;99.90;;;;;;5055492;28;19909;-82
2022/10/26 02:25:29;;;;;;;;;;;8.30;99.90;;;;;;5060196;28;19904;-82
2022/10/26 02:27:59;;;;;;;;;;;8.30;99.90;;;;;;5060781;28;20300;-82
2022/10/26 02:30:25;;;;;;;;;;;8.30;99.90;;;;;;5064544;28;20353;-82
2022/10/26 02:32:53;;;;;;;;;;;8.20;99.90;;;;;;5058798;28;19920;-82
2022/10/26 02:35:41;;;;;;;;;;;8.10;99.90;;;;;;5059325;28;19914;-82
2022/10/26 02:38:10;;;;;;;;;;;8.10;99.90;;;;;;5052208;28;19905;-82
2022/10/26 02:40:39;;;;;;;;;;;8.20;99.90;;;;;;5057298;28;19905;-82
2022/10/26 02:43:09;;;;;;;;;;;8.10;99.90;;;;;;5061996;28;19987;-82
2022/10/26 02:45:52;;;;;;;;;;;8.20;99.90;;;;;;5058774;28;19944;-82
2022/10/26 02:48:21;;;;;;;;;;;8.20;99.90;;;;;;5056291;28;19905;-82
2022/10/26 02:50:52;;;;;;;;;;;8.20;99.90;;;;;;5052735;28;19924;-82
2022/10/26 02:53:30;;;;;;;;;;;8.20;99.90;;;;;;5059182;28;19916;-82
2022/10/26 02:55:57;;;;;;;;;;;8.20;99.90;;;;;;5060534;28;19914;-82
2022/10/26 02:58:25;;;;;;;;;;;8.20;99.90;;;;;;5064859;28;20328;-81
2022/10/26 03:00:54;;;;;;;;;;;8.20;99.90;;;;;;5065571;28;19983;-82
2022/10/26 03:03:24;;;;;;;;;;;8.20;99.90;;;;;;5050443;28;19909;-82
2022/10/26 03:05:49;;;;;;;;;;;8.30;99.90;;;;;;5060787;28;19912;-82
2022/10/26 03:08:26;;;;;;;;;;;8.30;99.90;;;;;;5059758;28;20361;-82
2022/10/26 03:10:52;;;;;;;;;;;8.30;99.90;;;;;;5044371;28;20012;-82
2022/10/26 03:13:18;;;;;;;;;;;8.20;99.90;;;;;;5052377;28;19995;-82
2022/10/26 03:15:44;;;;;;;;;;;8.20;99.90;;;;;;5053199;28;19909;-82
2022/10/26 03:18:18;;;;;;;;;;;8.20;99.90;;;;;;5059446;28;19905;-82
2022/10/26 03:20:53;;;;;;;;;;;8.20;99.90;;;;;;5051434;28;20011;-81
2022/10/26 03:23:18;;;;;;;;;;;8.30;99.90;;;;;;5052453;28;20366;-82
2022/10/26 03:25:44;;;;;;;;;;;8.30;99.90;;;;;;5061595;28;20317;-82
2022/10/26 03:28:10;;;;;;;;;;;8.30;99.90;;;;;;5058556;28;20276;-81
2022/10/26 03:30:42;;;;;;;;;;;8.30;99.90;;;;;;5062770;28;19951;-81
2022/10/26 03:33:07;;;;;;;;;;;8.30;99.90;;;;;;5056437;28;19971;-81
2022/10/26 03:35:35;;;;;;;;;;;8.20;99.90;;;;;;5057576;28;19908;-81
2022/10/26 03:38:01;;;;;;;;;;;8.10;99.90;;;;;;5058806;28;19928;-81
2022/10/26 03:40:31;;;;;;;;;;;8.10;99.90;;;;;;5057818;28;20067;-81
2022/10/26 03:43:12;;;;;;;;;;;8.10;99.90;;;;;;5051887;28;20276;-82
2022/10/26 03:45:40;;;;;;;;;;;8.10;99.90;;;;;;5052664;28;20339;-82
2022/10/26 03:48:09;;;;;;;;;;;8.00;99.90;;;;;;5053842;28;19996;-81
2022/10/26 03:50:34;;;;;;;;;;;8.00;99.90;;;;;;5068674;28;19985;-81
2022/10/26 03:53:00;;;;;;;;;;;7.90;99.90;;;;;;5063352;28;20407;-82
2022/10/26 03:55:28;;;;;;;;;;;7.90;99.90;;;;;;5052344;28;20379;-82
2022/10/26 03:57:54;;;;;;;;;;;7.90;99.90;;;;;;5053121;28;19962;-81
2022/10/26 04:00:28;;;;;;;;;;;7.90;99.90;;;;;;5066043;28;19904;-81
2022/10/26 04:02:55;;;;;;;;;;;7.80;99.90;;;;;;5068601;28;19969;-81
2022/10/26 04:05:30;;;;;;;;;;;7.80;99.90;;;;;;5070805;28;19905;-81
2022/10/26 04:08:22;;;;;;;;;;;7.80;99.90;;;;;;5071336;28;19943;-81
2022/10/26 04:10:51;;;;;;;;;;;7.80;99.90;;;;;;5053818;28;20357;-81
2022/10/26 04:13:40;;;;;;;;;;;7.80;99.90;;;;;;5058523;28;20041;-81
2022/10/26 04:16:07;;;;;;;;;;;7.80;99.90;;;;;;5065103;28;19966;-81
2022/10/26 04:18:33;;;;;;;;;;;7.70;99.90;;;;;;5051625;28;19909;-81
2022/10/26 04:21:28;;;;;;;;;;;7.70;99.90;;;;;;5046078;28;19920;-81
2022/10/26 04:24:04;;;;;;;;;;;7.70;99.90;;;;;;5045162;28;20321;-81
2022/10/26 04:26:41;;;;;;;;;;;7.70;99.90;;;;;;5065380;28;19920;-81
2022/10/26 04:29:16;;;;;;;;;;;7.70;99.90;;;;;;5062521;28;19936;-76
2022/10/26 04:31:42;;;;;;;;;;;7.80;99.90;;;;;;5056423;28;19968;-77
2022/10/26 04:34:07;;;;;;;;;;;7.80;99.90;;;;;;5055096;28;19995;-75
2022/10/26 04:36:33;;;;;;;;;;;7.80;99.90;;;;;;5056080;28;19905;-76
2022/10/26 04:38:59;;;;;;;;;;;7.70;99.90;;;;;;5056587;28;19912;-75
2022/10/26 04:41:24;;;;;;;;;;;7.80;99.90;;;;;;5056095;28;20306;-74
2022/10/26 04:43:50;;;;;;;;;;;7.70;99.90;;;;;;5056743;28;19904;-75
2022/10/26 04:46:15;;;;;;;;;;;7.80;99.90;;;;;;5066667;28;19909;-76
2022/10/26 04:48:41;;;;;;;;;;;7.70;99.90;;;;;;5058152;28;19908;-75
2022/10/26 04:51:06;;;;;;;;;;;7.80;99.90;;;;;;5067197;28;20356;-76
2022/10/26 04:53:32;;;;;;;;;;;7.70;99.90;;;;;;5060129;28;19913;-76
2022/10/26 04:55:58;;;;;;;;;;;7.80;99.90;;;;;;5064176;28;19971;-74
2022/10/26 04:58:23;;;;;;;;;;;7.80;99.90;;;;;;5055558;28;19904;-74
2022/10/26 05:00:49;;;;;;;;;;;7.90;99.90;;;;;;5061913;28;19995;-75
2022/10/26 05:03:14;;;;;;;;;;;7.90;99.90;;;;;;5064557;28;20333;-75
2022/10/26 05:05:40;;;;;;;;;;;7.90;99.90;;;;;;5061894;28;19904;-75
2022/10/26 05:08:05;;;;;;;;;;;7.90;99.90;;;;;;5067183;28;19930;-75
2022/10/26 05:10:31;;;;;;;;;;;7.90;99.90;;;;;;5059270;28;19926;-75
2022/10/26 05:12:58;;;;;;;;;;;7.80;99.90;;;;;;5054691;28;19970;-77
2022/10/26 05:15:23;;;;;;;;;;;7.80;99.90;;;;;;5058280;28;20414;-75
2022/10/26 05:17:58;;;;;;;;;;;7.80;99.90;;;;;;5062008;28;19913;-75
2022/10/26 05:20:29;;;;;;;;;;;7.80;99.90;;;;;;5067682;28;20265;-75
2022/10/26 05:22:56;;;;;;;;;;;8.00;99.90;;;;;;5064290;28;19912;-75
2022/10/26 05:25:21;;;;;;;;;;;8.00;99.90;;;;;;5063205;28;19915;-75
2022/10/26 05:27:46;;;;;;;;;;;8.00;99.90;;;;;;5068653;28;20275;-78
2022/10/26 05:30:12;;;;;;;;;;;8.00;99.90;;;;;;5060191;28;20388;-75
2022/10/26 05:32:37;;;;;;;;;;;8.00;99.90;;;;;;5053538;28;19921;-75
2022/10/26 05:35:03;;;;;;;;;;;8.00;99.90;;;;;;5062664;28;20349;-74
2022/10/26 05:37:28;;;;;;;;;;;7.90;99.90;;;;;;5061015;28;19909;-75
2022/10/26 05:39:54;;;;;;;;;;;7.90;99.90;;;;;;5057184;28;19905;-76
2022/10/26 05:42:19;;;;;;;;;;;7.90;99.90;;;;;;5067426;28;20285;-75
2022/10/26 05:44:45;;;;;;;;;;;7.90;99.90;;;;;;5048695;28;20050;-75
2022/10/26 05:47:10;;;;;;;;;;;7.90;99.90;;;;;;5068099;28;19905;-75
2022/10/26 05:49:36;;;;;;;;;;;7.90;99.90;;;;;;5063840;28;19909;-75
2022/10/26 05:52:01;;;;;;;;;;;7.80;99.90;;;;;;5058277;28;19927;-74
2022/10/26 05:54:26;;;;;;;;;;;7.90;99.90;;;;;;5055976;28;19911;-75
2022/10/26 05:56:52;;;;;;;;;;;7.80;99.90;;;;;;5060349;28;19914;-74
2022/10/26 05:59:18;;;;;;;;;;;7.80;99.90;;;;;;5071424;28;19904;-75
2022/10/26 06:01:43;;;;;;;;;;;7.80;99.90;;;;;;5057781;28;19904;-75
2022/10/26 06:04:14;;;;;;;;;;;7.80;99.90;;;;;;5064593;28;19924;-76
2022/10/26 06:06:44;;;;;;;;;;;7.90;99.90;;;;;;5065290;28;19909;-75
2022/10/26 06:09:12;;;;;;;;;;;7.90;99.90;;;;;;5062204;28;19908;-75
2022/10/26 06:11:38;;;;;;;;;;;7.90;99.90;;;;;;5068465;28;19913;-75
2022/10/26 06:14:04;;;;;;;;;;;8.00;99.90;;;;;;5065457;28;20328;-75
2022/10/26 06:16:39;;;;;;;;;;;8.00;99.90;;;;;;5053540;28;20412;-75
2022/10/26 06:19:05;;;;;;;;;;;8.00;99.90;;;;;;5052466;28;19909;-75
2022/10/26 06:21:40;;;;;;;;;;;7.90;99.90;;;;;;5063402;28;19904;-75
2022/10/26 06:24:15;;;;;;;;;;;7.90;99.90;;;;;;5070534;28;20387;-75
2022/10/26 06:26:52;;;;;;;;;;;7.80;99.90;;;;;;5055103;28;19905;-75
2022/10/26 06:29:22;;;;;;;;;;;7.80;99.90;;;;;;5062964;28;19904;-74
2022/10/26 06:31:48;;;;;;;;;;;7.90;99.90;;;;;;5061352;28;19923;-76
2022/10/26 06:34:17;;;;;;;;;;;7.90;99.90;;;;;;5056328;28;19995;-75
2022/10/26 06:36:43;;;;;;;;;;;7.90;99.90;;;;;;5061370;28;19904;-75
2022/10/26 06:39:10;;;;;;;;;;;8.00;99.90;;;;;;5056817;28;19958;-76
2022/10/26 06:41:36;;;;;;;;;;;8.00;99.90;;;;;;5062874;28;19908;-75
2022/10/26 06:44:02;;;;;;;;;;;8.00;99.90;;;;;;5054783;28;20276;-76
2022/10/26 06:46:42;;;;;;;;;;;8.00;99.90;;;;;;5054657;28;19950;-75
2022/10/26 06:49:28;;;;;;;;;;;8.00;99.90;;;;;;5062921;28;20333;-75
2022/10/26 06:51:57;;;;;;;;;;;8.00;99.90;;;;;;5060714;28;19920;-75
2022/10/26 06:54:44;;;;;;;;;;;8.10;99.90;;;;;;5053052;28;19913;-75
2022/10/26 06:57:11;;;;;;;;;;;8.10;99.90;;;;;;5060725;28;19942;-75
2022/10/26 06:59:43;;;;;;;;;;;8.10;99.90;;;;;;5061068;28;19904;-76
2022/10/26 07:02:10;;;;;;;;;;;8.10;99.90;;;;;;5054901;28;20261;-75
2022/10/26 07:04:35;;;;;;;;;;;8.20;99.90;;;;;;5046017;28;20292;-75
2022/10/26 07:07:01;;;;;;;;;;;8.20;99.90;;;;;;5060732;28;19920;-75
2022/10/26 07:09:27;;;;;;;;;;;8.20;99.90;;;;;;5058203;28;19905;-75
2022/10/26 07:11:52;;;;;;;;;;;8.30;99.90;;;;;;5065315;28;19931;-75
2022/10/26 07:14:17;;;;;;;;;;;8.30;99.90;;;;;;5064407;28;19913;-75
2022/10/26 07:16:43;;;;;;;;;;;8.30;99.90;;;;;;5059624;28;20260;-76
2022/10/26 07:19:08;;;;;;;;;;;8.30;99.90;;;;;;5052428;28;20277;-75
2022/10/26 07:21:34;;;;;;;;;;;8.40;99.90;;;;;;5063821;28;20400;-77
2022/10/26 07:23:59;;;;;;;;;;;8.50;99.90;;;;;;5063493;28;19904;-75
2022/10/26 07:26:26;;;;;;;;;;;8.60;99.90;;;;;;5035261;28;19904;-75
2022/10/26 07:28:51;;;;;;;;;;;8.60;99.90;;;;;;5054551;28;20278;-77
2022/10/26 07:31:17;;;;;;;;;;;8.80;99.90;;;;;;5052538;28;19912;-77
2022/10/26 07:33:43;;;;;;;;;;;8.90;99.90;;;;;;5052225;28;19904;-75
2022/10/26 07:36:09;;;;;;;;;;;9.00;99.90;;;;;;5053647;28;19944;-75
2022/10/26 07:38:37;;;;;;;;;;;9.10;99.90;;;;;;5053297;28;19958;-75
2022/10/26 07:41:03;;;;;;;;;;;9.10;99.90;;;;;;5062819;28;20321;-75
2022/10/26 07:43:29;;;;;;;;;;;9.10;99.90;;;;;;5053845;28;19913;-76
2022/10/26 07:45:54;;;;;;;;;;;9.30;99.90;;;;;;5064918;28;19963;-78
2022/10/26 07:48:20;;;;;;;;;;;9.30;99.90;;;;;;5066876;28;19908;-75
2022/10/26 07:50:45;;;;;;;;;;;9.30;99.90;;;;;;5065092;28;19909;-75
2022/10/26 07:53:11;;;;;;;;;;;9.50;99.90;;;;;;5056414;28;19930;-75
2022/10/26 07:55:36;;;;;;;;;;;9.50;99.90;;;;;;5053403;28;19909;-75
2022/10/26 07:58:01;;;;;;;;;;;9.60;99.90;;;;;;5067756;28;19916;-76
2022/10/26 08:00:28;;;;;;;;;;;9.70;99.90;;;;;;5052998;28;19908;-76
2022/10/26 08:02:54;;;;;;;;;;;9.80;99.90;;;;;;5050808;28;19932;-75
2022/10/26 08:05:19;;;;;;;;;;;9.80;99.90;;;;;;5052277;28;19955;-76
2022/10/26 08:07:45;;;;;;;;;;;9.90;99.90;;;;;;5053167;28;19905;-75
2022/10/26 08:10:11;;;;;;;;;;;9.90;99.90;;;;;;5063534;28;19905;-75
2022/10/26 08:12:36;;;;;;;;;;;10.10;99.90;;;;;;5066517;28;19912;-75
2022/10/26 08:15:02;;;;;;;;;;;10.20;99.90;;;;;;5061635;28;20098;-76
2022/10/26 08:17:28;;;;;;;;;;;10.40;99.90;;;;;;5061249;28;20269;-75
2022/10/26 08:19:54;;;;;;;;;;;10.40;99.80;;;;;;5064146;28;19911;-75
2022/10/26 08:22:19;;;;;;;;;;;10.60;99.90;;;;;;5062533;28;19904;-76
2022/10/26 08:24:45;;;;;;;;;;;10.60;99.60;;;;;;5066323;28;19908;-75
2022/10/26 08:27:13;;;;;;;;;;;10.80;99.60;;;;;;5059639;28;19959;-75
2022/10/26 08:29:39;;;;;;;;;;;11.00;99.40;;;;;;5060776;28;19966;-75
2022/10/26 08:32:05;;;;;;;;;;;10.80;98.10;;;;;;5051057;28;19917;-78
2022/10/26 08:34:30;;;;;;;;;;;10.90;98.00;;;;;;5064451;28;19904;-76
2022/10/26 08:36:56;;;;;;;;;;;11.10;98.10;;;;;;5066227;28;19905;-74
2022/10/26 08:39:21;;;;;;;;;;;11.40;98.30;;;;;;5052408;28;19915;-76
2022/10/26 08:41:51;;;;;;;;;;;11.40;97.80;;;;;;5062200;28;20249;-75
2022/10/26 08:44:21;;;;;;;;;;;11.40;97.10;;;;;;5053653;28;19904;-74
2022/10/26 08:46:49;;;;;;;;;;;11.50;96.70;;;;;;5055442;28;19931;-74
2022/10/26 08:49:25;;;;;;;;;;;11.60;97.10;;;;;;5060465;28;19904;-76
2022/10/26 08:51:51;;;;;;;;;;;11.80;96.50;;;;;;5058843;28;19913;-74
2022/10/26 08:54:17;;;;;;;;;;;11.80;96.20;;;;;;5058953;28;19908;-75
2022/10/26 08:56:54;;;;;;;;;;;11.90;95.90;;;;;;5043527;28;19949;-76
2022/10/26 08:59:32;;;;;;;;;;;12.00;96.00;;;;;;5060557;28;20391;-75
2022/10/26 09:01:57;;;;;;;;;;;12.10;95.40;;;;;;5067805;28;19908;-75
2022/10/26 09:04:27;;;;;;;;;;;12.30;95.40;;;;;;5059342;28;20348;-76
2022/10/26 09:07:07;;;;;;;;;;;12.40;94.90;;;;;;5064021;28;20280;-74
2022/10/26 09:09:41;;;;;;;;;;;12.50;94.70;;;;;;5056000;28;20345;-74
2022/10/26 09:12:13;;;;;;;;;;;12.60;94.80;;;;;;5061074;28;19908;-74
2022/10/26 09:14:57;;;;;;;;;;;12.80;94.40;;;;;;5055967;28;20287;-76
2022/10/26 09:17:41;;;;;;;;;;;12.80;94.20;;;;;;5056205;28;19913;-76
2022/10/26 09:20:10;;;;;;;;;;;12.90;93.90;;;;;;5061634;28;19908;-74
2022/10/26 09:22:49;;;;;;;;;;;13.00;93.20;;;;;;5060382;28;20364;-75
2022/10/26 09:25:17;;;;;;;;;;;13.20;93.40;;;;;;5072685;28;20313;-74
2022/10/26 09:27:46;;;;;;;;;;;13.20;93.00;;;;;;5045152;28;20003;-74
2022/10/26 09:30:16;;;;;;;;;;;13.40;93.00;;;;;;5072859;28;19905;-74
2022/10/26 09:32:43;;;;;;;;;;;13.50;92.90;;;;;;5061013;28;20326;-76
2022/10/26 09:35:14;;;;;;;;;;;13.40;92.60;;;;;;5055175;28;20261;-75
2022/10/26 09:37:45;;;;;;;;;;;13.50;92.60;;;;;;5066291;28;19905;-75
2022/10/26 09:40:17;;;;;;;;;;;13.60;92.30;;;;;;5055203;28;19915;-75
2022/10/26 09:42:45;;;;;;;;;;;13.70;92.30;;;;;;5054195;28;19905;-75
2022/10/26 09:45:22;;;;;;;;;;;14.00;92.10;;;;;;5054527;28;20300;-76
2022/10/26 09:47:51;;;;;;;;;;;13.90;90.80;;;;;;5057196;28;19940;-76
2022/10/26 09:50:19;;;;;;;;;;;14.30;91.60;;;;;;5057458;28;20007;-75
2022/10/26 09:52:44;;;;;;;;;;;14.50;91.00;;;;;;5062432;28;20297;-75
2022/10/26 09:55:13;;;;;;;;;;;14.20;89.40;;;;;;5056019;28;19950;-75
2022/10/26 09:57:40;;;;;;;;;;;14.10;89.30;;;;;;5061731;28;20387;-75
2022/10/26 10:00:10;;;;;;;;;;;14.10;90.40;;;;;;5056611;28;20260;-76
2022/10/26 10:02:43;;;;;;;;;;;14.10;90.50;;;;;;5042213;28;19908;-74
2022/10/26 10:05:20;;;;;;;;;;;14.00;90.40;;;;;;5054476;28;19948;-75
2022/10/26 10:07:45;;;;;;;;;;;14.10;90.50;;;;;;5054481;28;19909;-75
2022/10/26 10:10:15;;;;;;;;;;;14.40;90.20;;;;;;5070781;28;19913;-75
2022/10/26 10:12:40;;;;;;;;;;;14.70;90.00;;;;;;5059748;28;20341;-75
2022/10/26 10:15:16;;;;;;;;;;;14.90;88.20;;;;;;5056921;28;19909;-75
2022/10/26 10:17:45;;;;;;;;;;;15.00;87.90;;;;;;5052718;28;20023;-76
2022/10/26 10:20:16;;;;;;;;;;;15.10;87.70;;;;;;5053650;28;19909;-75
2022/10/26 10:22:58;;;;;;;;;;;15.30;88.20;;;;;;5067580;28;19978;-76
2022/10/26 10:25:31;;;;;;;;;;;15.60;87.80;;;;;;5057558;28;19911;-75
2022/10/26 10:27:56;;;;;;;;;;;15.60;86.30;;;;;;5062546;28;19912;-76
2022/10/26 10:30:26;;;;;;;;;;;15.80;86.20;;;;;;5062080;28;19928;-76
2022/10/26 10:33:09;;;;;;;;;;;15.70;84.60;;;;;;5066438;28;19927;-76
2022/10/26 10:35:35;;;;;;;;;;;15.80;84.40;;;;;;5060855;28;19911;-76
2022/10/26 10:38:00;;;;;;;;;;;16.00;85.30;;;;;;5064968;28;19998;-75
2022/10/26 10:40:29;;;;;;;;;;;16.10;84.90;;;;;;5053659;28;19992;-75
2022/10/26 10:43:02;;;;;;;;;;;16.10;83.60;;;;;;5062366;28;19999;-75
2022/10/26 10:45:28;;;;;;;;;;;16.20;83.50;;;;;;5049883;28;19958;-75
2022/10/26 10:48:01;;;;;;;;;;;16.00;83.00;;;;;;5055759;28;20011;-76
2022/10/26 10:50:27;;;;;;;;;;;16.10;83.80;;;;;;5055810;28;19963;-75
2022/10/26 10:53:11;;;;;;;;;;;16.20;83.40;;;;;;5056824;28;19912;-74
2022/10/26 10:55:37;;;;;;;;;;;16.50;83.40;;;;;;5060208;28;19909;-75
2022/10/26 10:58:09;;;;;;;;;;;16.70;82.10;;;;;;5068797;28;19936;-74
2022/10/26 11:00:36;;;;;;;;;;;17.00;82.40;;;;;;5061894;28;19927;-77
2022/10/26 11:03:15;;;;;;;;;;;17.00;80.60;;;;;;5058800;28;20239;-76
2022/10/26 11:05:57;;;;;;;;;;;17.20;80.60;;;;;;5060008;28;19904;-75
2022/10/26 11:08:27;;;;;;;;;;;17.10;77.50;;;;;;5058395;28;19912;-75
2022/10/26 11:11:08;;;;;;;;;;;17.10;78.80;;;;;;5062108;28;20011;-75
2022/10/26 11:13:38;;;;;;;;;;;17.40;78.50;;;;;;5035555;28;19979;-76
2022/10/26 11:16:12;;;;;;;;;;;17.50;78.60;;;;;;5055471;28;19904;-76
2022/10/26 11:18:44;;;;;;;;;;;17.50;78.60;;;;;;5055141;28;19998;-74
2022/10/26 11:21:18;;;;;;;;;;;17.50;77.80;;;;;;5054222;28;19909;-76
2022/10/26 11:23:46;;;;;;;;;;;17.80;77.30;;;;;;5052729;28;19912;-76
2022/10/26 11:26:32;;;;;;;;;;;17.90;76.80;;;;;;5054871;28;19909;-75
2022/10/26 11:29:00;;;;;;;;;;;18.00;77.70;;;;;;5058466;28;20269;-75
2022/10/26 11:31:36;;;;;;;;;;;18.30;75.80;;;;;;5067398;28;19924;-76
2022/10/26 11:34:15;;;;;;;;;;;18.60;76.20;;;;;;5066967;28;19919;-76
2022/10/26 11:36:42;;;;;;;;;;;18.90;75.10;;;;;;5057824;28;19936;-76
2022/10/26 11:39:15;;;;;;;;;;;19.20;74.60;;;;;;5048003;28;19904;-76
2022/10/26 11:41:49;;;;;;;;;;;19.10;73.70;;;;;;5060430;28;20345;-76
2022/10/26 11:44:33;;;;;;;;;;;18.70;75.60;;;;;;5067896;28;19904;-76
2022/10/26 11:47:04;;;;;;;;;;;18.60;74.90;;;;;;5037918;28;19913;-76
2022/10/26 11:49:50;;;;;;;;;;;18.40;77.00;;;;;;5033883;28;20015;-75
2022/10/26 11:52:23;;;;;;;;;;;18.40;77.30;;;;;;5054705;28;19912;-75
2022/10/26 11:54:53;;;;;;;;;;;17.90;77.30;;;;;;5063029;28;20279;-75
2022/10/26 11:57:20;;;;;;;;;;;17.80;77.60;;;;;;5056406;28;19955;-76
2022/10/26 11:59:51;;;;;;;;;;;18.20;78.10;;;;;;5061394;28;20295;-75
2022/10/26 12:02:23;;;;;;;;;;;18.70;77.50;;;;;;5038069;28;19905;-78
2022/10/26 12:04:54;;;;;;;;;;;18.90;75.40;;;;;;5052759;28;19991;-75
2022/10/26 12:07:28;;;;;;;;;;;19.30;75.70;;;;;;5061720;28;20383;-76
2022/10/26 12:09:55;;;;;;;;;;;19.50;75.00;;;;;;5060821;28;19995;-75
2022/10/26 12:12:27;;;;;;;;;;;20.00;73.60;;;;;;5066266;28;20291;-76
2022/10/26 12:15:15;;;;;;;;;;;20.30;71.70;;;;;;5069751;28;19909;-75
2022/10/26 12:17:47;;;;;;;;;;;20.50;71.30;;;;;;5054408;28;20276;-75
2022/10/26 12:20:29;;;;;;;;;;;20.60;70.20;;;;;;5057343;28;19910;-75
2022/10/26 12:22:54;;;;;;;;;;;19.70;70.40;;;;;;5063740;28;20368;-75
2022/10/26 12:25:20;;;;;;;;;;;19.50;73.70;;;;;;5065228;28;19927;-75
2022/10/26 12:27:46;;;;;;;;;;;19.20;74.50;;;;;;5056908;28;20268;-75
2022/10/26 12:30:11;;;;;;;;;;;19.20;74.80;;;;;;5069105;28;19999;-75
2022/10/26 12:32:48;;;;;;;;;;;19.00;74.60;;;;;;5066210;28;19974;-75
2022/10/26 12:35:28;;;;;;;;;;;19.10;75.80;;;;;;5052783;28;19904;-75
2022/10/26 12:37:54;;;;;;;;;;;19.00;75.30;;;;;;5037634;28;19968;-74
2022/10/26 12:40:31;;;;;;;;;;;18.70;76.70;;;;;;5055925;28;20348;-75
2022/10/26 12:43:17;;;;;;;;;;;18.30;77.10;;;;;;5058728;28;19905;-75
2022/10/26 12:45:44;;;;;;;;;;;18.20;77.60;;;;;;5055219;28;19913;-77
2022/10/26 12:48:20;;;;;;;;;;;17.80;78.80;;;;;;5032878;28;19916;-76
2022/10/26 12:50:46;;;;;;;;;;;17.60;80.10;;;;;;5043796;28;19994;-74
2022/10/26 12:53:12;;;;;;;;;;;17.30;80.50;;;;;;5057908;28;19913;-74
2022/10/26 12:55:55;;;;;;;;;;;17.20;81.40;;;;;;5057389;28;20267;-75
2022/10/26 12:58:35;;;;;;;;;;;17.10;81.80;;;;;;5063276;28;19905;-74
2022/10/26 13:01:01;;;;;;;;;;;17.10;81.90;;;;;;5064127;28;20455;-75
2022/10/26 13:03:32;;;;;;;;;;;17.00;82.30;;;;;;5057957;28;19980;-75
2022/10/26 13:06:16;;;;;;;;;;;17.10;83.10;;;;;;5069405;28;19911;-75
2022/10/26 13:08:44;;;;;;;;;;;17.10;82.00;;;;;;5059110;28;20330;-75
2022/10/26 13:11:16;;;;;;;;;;;17.10;81.60;;;;;;5064976;28;20315;-76
2022/10/26 13:13:41;;;;;;;;;;;17.40;81.90;;;;;;5055370;28;19951;-76
2022/10/26 13:16:09;;;;;;;;;;;17.50;80.10;;;;;;5054839;28;19936;-75
2022/10/26 13:18:40;;;;;;;;;;;17.40;79.40;;;;;;5056237;28;19955;-75
2022/10/26 13:21:13;;;;;;;;;;;17.60;79.90;;;;;;5065517;28;19904;-75
2022/10/26 13:23:40;;;;;;;;;;;18.00;79.60;;;;;;5057019;28;19916;-75
2022/10/26 13:26:08;;;;;;;;;;;18.60;76.50;;;;;;5066154;28;19951;-74
2022/10/26 13:28:36;;;;;;;;;;;19.00;75.30;;;;;;5063041;28;19909;-75
2022/10/26 13:31:02;;;;;;;;;;;19.50;73.30;;;;;;5056331;28;19920;-75
2022/10/26 13:33:30;;;;;;;;;;;19.80;72.20;;;;;;5062912;28;19964;-75
2022/10/26 13:35:57;;;;;;;;;;;19.40;72.10;;;;;;5059207;28;19904;-75
2022/10/26 13:38:25;;;;;;;;;;;19.50;73.50;;;;;;5072322;28;19920;-75
2022/10/26 13:40:55;;;;;;;;;;;19.20;71.90;;;;;;5058967;28;19919;-75
2022/10/26 13:43:22;;;;;;;;;;;19.10;72.10;;;;;;5054853;28;20478;-76
2022/10/26 13:45:55;;;;;;;;;;;18.90;71.80;;;;;;5037085;28;20076;-75
2022/10/26 13:48:34;;;;;;;;;;;18.90;73.60;;;;;;5045929;28;19904;-75
2022/10/26 13:51:02;;;;;;;;;;;18.70;74.70;;;;;;5058148;28;19912;-75
2022/10/26 13:53:44;;;;;;;;;;;18.80;74.80;;;;;;5058201;28;19915;-75
2022/10/26 13:56:09;;;;;;;;;;;18.60;75.70;;;;;;5056666;28;19905;-75
2022/10/26 13:58:44;;;;;;;;;;;18.30;75.50;;;;;;5062366;28;19905;-75
2022/10/26 14:01:10;;;;;;;;;;;18.00;76.40;;;;;;5061667;28;19914;-74
2022/10/26 14:03:36;;;;;;;;;;;17.90;76.80;;;;;;5062576;28;19955;-77
2022/10/26 14:06:09;;;;;;;;;;;17.80;77.70;;;;;;5060176;28;19913;-75
2022/10/26 14:08:34;;;;;;;;;;;17.50;78.60;;;;;;5063713;28;19912;-76
2022/10/26 14:11:00;;;;;;;;;;;17.50;78.50;;;;;;5038924;28;19982;-75
2022/10/26 14:13:26;;;;;;;;;;;17.90;78.60;;;;;;5055843;28;19951;-74
2022/10/26 14:15:53;;;;;;;;;;;18.00;78.50;;;;;;5057538;28;19912;-76
2022/10/26 14:18:21;;;;;;;;;;;18.00;77.70;;;;;;5060935;28;19909;-75
2022/10/26 14:20:54;;;;;;;;;;;17.90;78.10;;;;;;5064855;28;19909;-74
2022/10/26 14:23:25;;;;;;;;;;;17.50;78.40;;;;;;5065282;28;19908;-74
2022/10/26 14:25:54;;;;;;;;;;;17.50;79.50;;;;;;5038671;28;20003;-74
2022/10/26 14:28:21;;;;;;;;;;;17.50;79.20;;;;;;5047756;28;20361;-74
2022/10/26 14:30:46;;;;;;;;;;;17.30;80.30;;;;;;5069394;28;19923;-74
2022/10/26 14:33:19;;;;;;;;;;;17.30;80.40;;;;;;5061799;28;19917;-74
2022/10/26 14:35:46;;;;;;;;;;;17.10;80.50;;;;;;5066451;28;19912;-74
2022/10/26 14:38:26;;;;;;;;;;;17.00;80.60;;;;;;5061624;28;20379;-74
2022/10/26 14:40:54;;;;;;;;;;;17.00;81.10;;;;;;5064177;28;19908;-76